sensor_id;sensor_type;location;lat;lon;timestamp;pressure;altitude;pressure_sealevel;temperature;humidity
67987;BME280;54767;53.800;15.956;2023-03-05T00:01:39;99899.38;;;-1.19;66.20
67987;BME280;54767;53.800;15.956;2023-03-05T00:04:11;99899.27;;;-1.21;65.97
67987;BME280;54767;53.800;15.956;2023-03-05T00:06:39;99898.34;;;-1.23;66.28
67987;BME280;54767;53.800;15.956;2023-03-05T00:09:08;99891.60;;;-1.24;66.36
67987;BME280;54767;53.800;15.956;2023-03-05T00:11:36;99885.55;;;-1.25;66.28
67987;BME280;54767;53.800;15.956;2023-03-05T00:14:05;99882.45;;;-1.25;66.27
67987;BME280;54767;53.800;15.956;2023-03-05T00:16:33;99875.04;;;-1.26;66.14
67987;BME280;54767;53.800;15.956;2023-03-05T00:19:01;99870.01;;;-1.23;66.23
67987;BME280;54767;53.800;15.956;2023-03-05T00:21:35;99868.34;;;-1.22;65.99
67987;BME280;54767;53.800;15.956;2023-03-05T00:24:07;99870.45;;;-1.21;66.36
67987;BME280;54767;53.800;15.956;2023-03-05T00:26:38;99864.80;;;-1.20;66.26
67987;BME280;54767;53.800;15.956;2023-03-05T00:29:16;99859.35;;;-1.19;66.60
67987;BME280;54767;53.800;15.956;2023-03-05T00:31:49;99851.90;;;-1.21;66.33
67987;BME280;54767;53.800;15.956;2023-03-05T00:34:18;99845.23;;;-1.24;66.25
67987;BME280;54767;53.800;15.956;2023-03-05T00:36:48;99844.46;;;-1.26;66.40
67987;BME280;54767;53.800;15.956;2023-03-05T00:39:19;99842.49;;;-1.28;66.53
67987;BME280;54767;53.800;15.956;2023-03-05T00:41:47;99836.77;;;-1.30;66.32
67987;BME280;54767;53.800;15.956;2023-03-05T00:44:16;99834.09;;;-1.32;66.38
67987;BME280;54767;53.800;15.956;2023-03-05T00:46:44;99839.52;;;-1.33;66.59
67987;BME280;54767;53.800;15.956;2023-03-05T00:49:12;99839.96;;;-1.35;66.32
67987;BME280;54767;53.800;15.956;2023-03-05T00:51:40;99837.20;;;-1.35;66.68
67987;BME280;54767;53.800;15.956;2023-03-05T00:54:09;99829.63;;;-1.32;66.76
67987;BME280;54767;53.800;15.956;2023-03-05T00:56:37;99826.88;;;-1.28;67.01
67987;BME280;54767;53.800;15.956;2023-03-05T00:59:05;99823.65;;;-1.23;67.06
67987;BME280;54767;53.800;15.956;2023-03-05T01:01:34;99806.42;;;-1.20;66.89
67987;BME280;54767;53.800;15.956;2023-03-05T01:04:03;99798.95;;;-1.18;66.79
67987;BME280;54767;53.800;15.956;2023-03-05T01:06:31;99801.02;;;-1.18;66.78
67987;BME280;54767;53.800;15.956;2023-03-05T01:08:59;99801.77;;;-1.17;66.91
67987;BME280;54767;53.800;15.956;2023-03-05T01:11:27;99799.02;;;-1.17;67.18
67987;BME280;54767;53.800;15.956;2023-03-05T01:13:55;99798.36;;;-1.16;67.12
67987;BME280;54767;53.800;15.956;2023-03-05T01:16:23;99796.70;;;-1.15;67.21
67987;BME280;54767;53.800;15.956;2023-03-05T01:18:51;99789.19;;;-1.14;67.31
67987;BME280;54767;53.800;15.956;2023-03-05T01:21:20;99782.02;;;-1.12;67.32
67987;BME280;54767;53.800;15.956;2023-03-05T01:23:48;99787.75;;;-1.11;67.54
67987;BME280;54767;53.800;15.956;2023-03-05T01:26:17;99793.57;;;-1.07;67.55
67987;BME280;54767;53.800;15.956;2023-03-05T01:28:45;99797.27;;;-1.05;67.61
67987;BME280;54767;53.800;15.956;2023-03-05T01:31:13;99793.05;;;-1.03;67.69
67987;BME280;54767;53.800;15.956;2023-03-05T01:33:41;99790.41;;;-1.01;67.66
67987;BME280;54767;53.800;15.956;2023-03-05T01:36:14;99790.08;;;-1.01;67.58
67987;BME280;54767;53.800;15.956;2023-03-05T01:38:45;99798.34;;;-1.00;67.89
67987;BME280;54767;53.800;15.956;2023-03-05T01:41:15;99793.20;;;-0.99;68.20
67987;BME280;54767;53.800;15.956;2023-03-05T01:43:45;99791.41;;;-0.97;68.34
67987;BME280;54767;53.800;15.956;2023-03-05T01:49:10;99785.45;;;-0.92;68.34
67987;BME280;54767;53.800;15.956;2023-03-05T01:51:45;99786.00;;;-0.86;68.62
67987;BME280;54767;53.800;15.956;2023-03-05T01:54:16;99783.63;;;-0.82;68.49
67987;BME280;54767;53.800;15.956;2023-03-05T01:56:47;99778.02;;;-0.76;68.78
67987;BME280;54767;53.800;15.956;2023-03-05T01:59:18;99774.36;;;-0.73;69.01
67987;BME280;54767;53.800;15.956;2023-03-05T02:01:48;99775.55;;;-0.69;68.84
67987;BME280;54767;53.800;15.956;2023-03-05T02:04:18;99764.80;;;-0.66;68.90
67987;BME280;54767;53.800;15.956;2023-03-05T02:06:48;99756.26;;;-0.65;68.67
67987;BME280;54767;53.800;15.956;2023-03-05T02:09:19;99754.38;;;-0.65;68.83
67987;BME280;54767;53.800;15.956;2023-03-05T02:11:50;99750.70;;;-0.67;68.92
67987;BME280;54767;53.800;15.956;2023-03-05T02:14:18;99749.16;;;-0.66;69.19
67987;BME280;54767;53.800;15.956;2023-03-05T02:16:47;99743.43;;;-0.63;69.23
67987;BME280;54767;53.800;15.956;2023-03-05T02:19:16;99739.21;;;-0.61;69.42
67987;BME280;54767;53.800;15.956;2023-03-05T02:21:46;99743.95;;;-0.59;69.19
67987;BME280;54767;53.800;15.956;2023-03-05T02:24:17;99744.61;;;-0.56;69.24
67987;BME280;54767;53.800;15.956;2023-03-05T02:26:46;99740.46;;;-0.51;69.44
67987;BME280;54767;53.800;15.956;2023-03-05T02:29:18;99736.30;;;-0.48;69.56
67987;BME280;54767;53.800;15.956;2023-03-05T02:31:47;99725.72;;;-0.46;69.28
67987;BME280;54767;53.800;15.956;2023-03-05T02:34:15;99725.40;;;-0.45;69.65
67987;BME280;54767;53.800;15.956;2023-03-05T02:36:43;99725.13;;;-0.43;69.57
67987;BME280;54767;53.800;15.956;2023-03-05T02:39:11;99720.83;;;-0.43;69.62
67987;BME280;54767;53.800;15.956;2023-03-05T02:41:40;99713.63;;;-0.43;69.51
67987;BME280;54767;53.800;15.956;2023-03-05T02:44:08;99710.27;;;-0.41;69.32
67987;BME280;54767;53.800;15.956;2023-03-05T02:46:36;99706.06;;;-0.38;69.52
67987;BME280;54767;53.800;15.956;2023-03-05T02:49:04;99705.64;;;-0.36;69.33
67987;BME280;54767;53.800;15.956;2023-03-05T02:51:33;99705.13;;;-0.36;69.37
67987;BME280;54767;53.800;15.956;2023-03-05T02:54:01;99703.56;;;-0.36;69.74
67987;BME280;54767;53.800;15.956;2023-03-05T02:56:29;99703.00;;;-0.38;69.79
67987;BME280;54767;53.800;15.956;2023-03-05T02:58:57;99699.84;;;-0.39;69.86
67987;BME280;54767;53.800;15.956;2023-03-05T03:01:25;99698.42;;;-0.40;69.79
67987;BME280;54767;53.800;15.956;2023-03-05T03:03:55;99691.77;;;-0.39;70.15
67987;BME280;54767;53.800;15.956;2023-03-05T03:06:23;99690.89;;;-0.35;70.03
67987;BME280;54767;53.800;15.956;2023-03-05T03:08:51;99690.36;;;-0.31;69.82
67987;BME280;54767;53.800;15.956;2023-03-05T03:11:19;99687.94;;;-0.26;69.85
67987;BME280;54767;53.800;15.956;2023-03-05T03:13:48;99685.61;;;-0.24;69.79
67987;BME280;54767;53.800;15.956;2023-03-05T03:16:16;99681.71;;;-0.22;69.83
67987;BME280;54767;53.800;15.956;2023-03-05T03:18:44;99677.64;;;-0.20;69.96
67987;BME280;54767;53.800;15.956;2023-03-05T03:21:21;99675.92;;;-0.21;69.67
67987;BME280;54767;53.800;15.956;2023-03-05T03:23:50;99672.46;;;-0.21;69.81
67987;BME280;54767;53.800;15.956;2023-03-05T03:26:18;99666.66;;;-0.20;69.65
67987;BME280;54767;53.800;15.956;2023-03-05T03:28:46;99668.58;;;-0.19;69.81
67987;BME280;54767;53.800;15.956;2023-03-05T03:31:15;99664.31;;;-0.18;69.90
67987;BME280;54767;53.800;15.956;2023-03-05T03:33:44;99653.76;;;-0.15;69.97
67987;BME280;54767;53.800;15.956;2023-03-05T03:36:12;99646.03;;;-0.10;69.84
67987;BME280;54767;53.800;15.956;2023-03-05T03:38:40;99643.79;;;-0.06;69.80
67987;BME280;54767;53.800;15.956;2023-03-05T03:41:08;99638.41;;;-0.02;69.59
67987;BME280;54767;53.800;15.956;2023-03-05T03:43:36;99632.77;;;-0.01;69.88
67987;BME280;54767;53.800;15.956;2023-03-05T03:46:05;99627.44;;;-0.01;69.72
67987;BME280;54767;53.800;15.956;2023-03-05T03:48:34;99624.44;;;-0.03;69.54
67987;BME280;54767;53.800;15.956;2023-03-05T03:51:04;99620.13;;;-0.04;69.60
67987;BME280;54767;53.800;15.956;2023-03-05T03:53:33;99615.42;;;-0.05;69.45
67987;BME280;54767;53.800;15.956;2023-03-05T03:56:01;99613.67;;;-0.06;69.55
67987;BME280;54767;53.800;15.956;2023-03-05T03:58:30;99611.75;;;-0.07;69.45
67987;BME280;54767;53.800;15.956;2023-03-05T04:00:59;99608.48;;;-0.07;69.64
67987;BME280;54767;53.800;15.956;2023-03-05T04:03:27;99604.40;;;-0.05;69.45
67987;BME280;54767;53.800;15.956;2023-03-05T04:05:55;99602.05;;;-0.03;69.76
67987;BME280;54767;53.800;15.956;2023-03-05T04:08:24;99596.82;;;-0.01;69.55
67987;BME280;54767;53.800;15.956;2023-03-05T04:10:52;99596.04;;;0.02;69.77
67987;BME280;54767;53.800;15.956;2023-03-05T04:13:20;99593.69;;;0.04;69.65
67987;BME280;54767;53.800;15.956;2023-03-05T04:15:48;99591.14;;;0.04;69.68
67987;BME280;54767;53.800;15.956;2023-03-05T04:18:17;99588.39;;;0.04;69.99
67987;BME280;54767;53.800;15.956;2023-03-05T04:20:45;99578.57;;;0.04;69.74
67987;BME280;54767;53.800;15.956;2023-03-05T04:23:13;99576.33;;;0.04;69.76
67987;BME280;54767;53.800;15.956;2023-03-05T04:25:42;99574.05;;;0.03;70.16
67987;BME280;54767;53.800;15.956;2023-03-05T04:28:11;99569.38;;;0.02;69.89
67987;BME280;54767;53.800;15.956;2023-03-05T04:30:39;99564.59;;;0.03;69.84
67987;BME280;54767;53.800;15.956;2023-03-05T04:33:07;99559.84;;;0.05;70.11
67987;BME280;54767;53.800;15.956;2023-03-05T04:35:36;99555.80;;;0.07;69.96
67987;BME280;54767;53.800;15.956;2023-03-05T04:38:04;99548.14;;;0.10;69.93
67987;BME280;54767;53.800;15.956;2023-03-05T04:40:33;99544.19;;;0.10;70.38
67987;BME280;54767;53.800;15.956;2023-03-05T04:43:02;99541.64;;;0.11;70.08
67987;BME280;54767;53.800;15.956;2023-03-05T04:45:30;99537.89;;;0.12;70.35
67987;BME280;54767;53.800;15.956;2023-03-05T04:47:59;99536.48;;;0.11;70.48
67987;BME280;54767;53.800;15.956;2023-03-05T04:50:27;99533.38;;;0.11;70.53
67987;BME280;54767;53.800;15.956;2023-03-05T04:52:55;99526.16;;;0.11;70.55
67987;BME280;54767;53.800;15.956;2023-03-05T04:55:23;99527.10;;;0.14;70.47
67987;BME280;54767;53.800;15.956;2023-03-05T04:57:51;99524.95;;;0.16;70.33
67987;BME280;54767;53.800;15.956;2023-03-05T05:00:20;99523.02;;;0.20;70.43
67987;BME280;54767;53.800;15.956;2023-03-05T05:02:49;99523.51;;;0.25;70.13
67987;BME280;54767;53.800;15.956;2023-03-05T05:05:21;99521.70;;;0.28;70.31
67987;BME280;54767;53.800;15.956;2023-03-05T05:07:54;99523.97;;;0.29;70.41
67987;BME280;54767;53.800;15.956;2023-03-05T05:10:24;99520.88;;;0.29;70.32
67987;BME280;54767;53.800;15.956;2023-03-05T05:12:53;99518.79;;;0.28;70.50
67987;BME280;54767;53.800;15.956;2023-03-05T05:15:21;99524.13;;;0.28;70.42
67987;BME280;54767;53.800;15.956;2023-03-05T05:17:49;99524.11;;;0.28;70.64
67987;BME280;54767;53.800;15.956;2023-03-05T05:20:18;99526.44;;;0.26;70.56
67987;BME280;54767;53.800;15.956;2023-03-05T05:22:46;99526.88;;;0.23;70.74
67987;BME280;54767;53.800;15.956;2023-03-05T05:25:15;99526.52;;;0.17;70.69
67987;BME280;54767;53.800;15.956;2023-03-05T05:27:43;99530.30;;;0.11;71.01
67987;BME280;54767;53.800;15.956;2023-03-05T05:30:11;99530.81;;;0.11;71.25
67987;BME280;54767;53.800;15.956;2023-03-05T05:32:39;99528.39;;;0.11;71.22
67987;BME280;54767;53.800;15.956;2023-03-05T05:35:08;99529.76;;;0.11;71.19
67987;BME280;54767;53.800;15.956;2023-03-05T05:37:37;99526.23;;;0.08;71.39
67987;BME280;54767;53.800;15.956;2023-03-05T05:40:07;99530.70;;;-0.03;71.57
67987;BME280;54767;53.800;15.956;2023-03-05T05:42:36;99526.96;;;-0.12;71.79
67987;BME280;54767;53.800;15.956;2023-03-05T05:45:05;99528.84;;;-0.17;71.84
67987;BME280;54767;53.800;15.956;2023-03-05T05:47:33;99528.56;;;-0.21;72.19
67987;BME280;54767;53.800;15.956;2023-03-05T05:50:01;99529.54;;;-0.22;71.99
67987;BME280;54767;53.800;15.956;2023-03-05T05:52:30;99530.63;;;-0.20;72.05
67987;BME280;54767;53.800;15.956;2023-03-05T05:54:58;99529.36;;;-0.17;72.26
67987;BME280;54767;53.800;15.956;2023-03-05T05:57:26;99528.33;;;-0.12;72.21
67987;BME280;54767;53.800;15.956;2023-03-05T05:59:54;99521.74;;;-0.08;72.16
67987;BME280;54767;53.800;15.956;2023-03-05T06:02:22;99521.31;;;-0.11;72.16
67987;BME280;54767;53.800;15.956;2023-03-05T06:04:50;99524.21;;;-0.12;72.36
67987;BME280;54767;53.800;15.956;2023-03-05T06:07:18;99520.84;;;-0.15;72.58
67987;BME280;54767;53.800;15.956;2023-03-05T06:09:46;99520.10;;;-0.16;72.62
67987;BME280;54767;53.800;15.956;2023-03-05T06:12:15;99515.30;;;-0.16;72.32
67987;BME280;54767;53.800;15.956;2023-03-05T06:14:43;99516.59;;;-0.14;72.85
67987;BME280;54767;53.800;15.956;2023-03-05T06:17:11;99516.17;;;-0.10;72.59
67987;BME280;54767;53.800;15.956;2023-03-05T06:19:48;99512.68;;;-0.07;72.81
67987;BME280;54767;53.800;15.956;2023-03-05T06:22:16;99508.31;;;-0.03;72.46
67987;BME280;54767;53.800;15.956;2023-03-05T06:24:44;99509.88;;;-0.03;72.91
67987;BME280;54767;53.800;15.956;2023-03-05T06:27:12;99501.65;;;-0.02;72.54
67987;BME280;54767;53.800;15.956;2023-03-05T06:29:40;99499.00;;;0.00;72.55
67987;BME280;54767;53.800;15.956;2023-03-05T06:32:09;99496.26;;;0.02;72.39
67987;BME280;54767;53.800;15.956;2023-03-05T06:34:37;99491.70;;;0.04;72.32
67987;BME280;54767;53.800;15.956;2023-03-05T06:37:05;99489.23;;;0.07;72.22
67987;BME280;54767;53.800;15.956;2023-03-05T06:39:33;99488.45;;;0.10;72.04
67987;BME280;54767;53.800;15.956;2023-03-05T06:42:01;99483.56;;;0.13;71.89
67987;BME280;54767;53.800;15.956;2023-03-05T06:44:29;99482.59;;;0.15;71.99
67987;BME280;54767;53.800;15.956;2023-03-05T06:46:58;99482.43;;;0.16;72.11
67987;BME280;54767;53.800;15.956;2023-03-05T06:49:26;99487.84;;;0.18;72.01
67987;BME280;54767;53.800;15.956;2023-03-05T06:51:54;99491.66;;;0.19;72.05
67987;BME280;54767;53.800;15.956;2023-03-05T06:54:22;99492.40;;;0.20;72.04
67987;BME280;54767;53.800;15.956;2023-03-05T06:56:50;99497.09;;;0.22;71.95
67987;BME280;54767;53.800;15.956;2023-03-05T06:59:18;99494.69;;;0.23;71.95
67987;BME280;54767;53.800;15.956;2023-03-05T07:01:46;99497.49;;;0.24;71.99
67987;BME280;54767;53.800;15.956;2023-03-05T07:04:15;99502.61;;;0.28;72.11
67987;BME280;54767;53.800;15.956;2023-03-05T07:06:44;99503.38;;;0.31;71.85
67987;BME280;54767;53.800;15.956;2023-03-05T07:09:14;99500.88;;;0.33;71.99
67987;BME280;54767;53.800;15.956;2023-03-05T07:11:43;99501.79;;;0.35;72.10
67987;BME280;54767;53.800;15.956;2023-03-05T07:14:11;99505.60;;;0.35;72.05
67987;BME280;54767;53.800;15.956;2023-03-05T07:16:39;99508.88;;;0.36;71.90
67987;BME280;54767;53.800;15.956;2023-03-05T07:19:07;99509.74;;;0.36;71.69
67987;BME280;54767;53.800;15.956;2023-03-05T07:21:38;99511.13;;;0.36;71.87
67987;BME280;54767;53.800;15.956;2023-03-05T07:24:07;99513.80;;;0.39;71.80
67987;BME280;54767;53.800;15.956;2023-03-05T07:26:35;99515.15;;;0.44;71.96
67987;BME280;54767;53.800;15.956;2023-03-05T07:29:04;99513.38;;;0.48;71.59
67987;BME280;54767;53.800;15.956;2023-03-05T07:31:32;99509.55;;;0.52;71.79
67987;BME280;54767;53.800;15.956;2023-03-05T07:34:01;99508.38;;;0.53;71.88
67987;BME280;54767;53.800;15.956;2023-03-05T07:36:30;99513.88;;;0.53;71.73
67987;BME280;54767;53.800;15.956;2023-03-05T07:38:58;99509.84;;;0.51;71.92
67987;BME280;54767;53.800;15.956;2023-03-05T07:41:26;99511.05;;;0.51;71.77
67987;BME280;54767;53.800;15.956;2023-03-05T07:43:54;99509.69;;;0.51;72.13
67987;BME280;54767;53.800;15.956;2023-03-05T07:46:26;99511.48;;;0.54;71.88
67987;BME280;54767;53.800;15.956;2023-03-05T07:48:55;99510.52;;;0.56;71.81
67987;BME280;54767;53.800;15.956;2023-03-05T07:51:25;99505.45;;;0.59;71.84
67987;BME280;54767;53.800;15.956;2023-03-05T07:53:56;99508.98;;;0.61;71.61
67987;BME280;54767;53.800;15.956;2023-03-05T07:56:30;99506.40;;;0.62;72.05
67987;BME280;54767;53.800;15.956;2023-03-05T07:59:06;99507.58;;;0.61;71.71
67987;BME280;54767;53.800;15.956;2023-03-05T08:01:36;99507.70;;;0.59;71.86
67987;BME280;54767;53.800;15.956;2023-03-05T08:04:05;99508.73;;;0.59;72.00
67987;BME280;54767;53.800;15.956;2023-03-05T08:06:34;99510.11;;;0.60;72.06
67987;BME280;54767;53.800;15.956;2023-03-05T08:09:02;99510.34;;;0.61;71.89
67987;BME280;54767;53.800;15.956;2023-03-05T08:11:30;99511.59;;;0.63;71.99
67987;BME280;54767;53.800;15.956;2023-03-05T08:13:58;99514.20;;;0.64;71.90
67987;BME280;54767;53.800;15.956;2023-03-05T08:16:27;99515.23;;;0.64;72.06
67987;BME280;54767;53.800;15.956;2023-03-05T08:18:56;99515.59;;;0.64;72.09
67987;BME280;54767;53.800;15.956;2023-03-05T08:21:27;99516.81;;;0.65;72.30
67987;BME280;54767;53.800;15.956;2023-03-05T08:24:02;99516.31;;;0.65;72.18
67987;BME280;54767;53.800;15.956;2023-03-05T08:26:33;99517.22;;;0.67;72.33
67987;BME280;54767;53.800;15.956;2023-03-05T08:29:02;99518.51;;;0.70;72.53
67987;BME280;54767;53.800;15.956;2023-03-05T08:31:31;99515.35;;;0.74;72.28
67987;BME280;54767;53.800;15.956;2023-03-05T08:34:00;99517.45;;;0.75;72.28
67987;BME280;54767;53.800;15.956;2023-03-05T08:36:28;99518.73;;;0.77;72.66
67987;BME280;54767;53.800;15.956;2023-03-05T08:38:57;99513.02;;;0.77;72.52
67987;BME280;54767;53.800;15.956;2023-03-05T08:41:26;99514.73;;;0.76;72.49
67987;BME280;54767;53.800;15.956;2023-03-05T08:43:55;99514.56;;;0.76;72.19
67987;BME280;54767;53.800;15.956;2023-03-05T08:46:23;99514.59;;;0.77;72.32
67987;BME280;54767;53.800;15.956;2023-03-05T08:48:51;99510.02;;;0.79;72.51
67987;BME280;54767;53.800;15.956;2023-03-05T08:51:21;99515.54;;;0.80;72.18
67987;BME280;54767;53.800;15.956;2023-03-05T08:53:54;99512.66;;;0.82;72.17
67987;BME280;54767;53.800;15.956;2023-03-05T08:56:22;99512.54;;;0.83;72.40
67987;BME280;54767;53.800;15.956;2023-03-05T08:58:50;99510.34;;;0.84;72.51
67987;BME280;54767;53.800;15.956;2023-03-05T09:01:19;99508.13;;;0.85;72.73
67987;BME280;54767;53.800;15.956;2023-03-05T09:03:49;99507.86;;;0.88;72.53
67987;BME280;54767;53.800;15.956;2023-03-05T09:06:18;99505.04;;;0.92;72.69
67987;BME280;54767;53.800;15.956;2023-03-05T09:08:46;99505.72;;;0.98;72.66
67987;BME280;54767;53.800;15.956;2023-03-05T09:11:14;99505.34;;;1.03;72.90
67987;BME280;54767;53.800;15.956;2023-03-05T09:13:42;99500.65;;;1.07;72.67
67987;BME280;54767;53.800;15.956;2023-03-05T09:16:13;99502.29;;;1.11;72.67
67987;BME280;54767;53.800;15.956;2023-03-05T09:18:42;99499.27;;;1.13;72.77
67987;BME280;54767;53.800;15.956;2023-03-05T09:21:15;99498.95;;;1.15;72.82
67987;BME280;54767;53.800;15.956;2023-03-05T09:23:44;99505.06;;;1.18;72.76
67987;BME280;54767;53.800;15.956;2023-03-05T09:26:14;99502.42;;;1.21;72.85
67987;BME280;54767;53.800;15.956;2023-03-05T09:28:46;99499.93;;;1.25;72.81
67987;BME280;54767;53.800;15.956;2023-03-05T09:31:15;99500.45;;;1.31;72.82
67987;BME280;54767;53.800;15.956;2023-03-05T09:33:47;99499.75;;;1.37;72.65
67987;BME280;54767;53.800;15.956;2023-03-05T09:36:25;99495.23;;;1.43;72.69
67987;BME280;54767;53.800;15.956;2023-03-05T09:38:54;99496.05;;;1.47;72.51
67987;BME280;54767;53.800;15.956;2023-03-05T09:46:54;99494.00;;;1.48;72.02
67987;BME280;54767;53.800;15.956;2023-03-05T09:52:33;99490.70;;;1.47;72.25
67987;BME280;54767;53.800;15.956;2023-03-05T09:55:38;99489.60;;;1.51;72.25
67987;BME280;54767;53.800;15.956;2023-03-05T09:58:33;99479.86;;;1.55;72.08
67987;BME280;54767;53.800;15.956;2023-03-05T10:06:59;99483.80;;;1.53;71.81
67987;BME280;54767;53.800;15.956;2023-03-05T10:10:01;99476.74;;;1.54;71.89
67987;BME280;54767;53.800;15.956;2023-03-05T10:15:14;99478.48;;;1.61;72.11
67987;BME280;54767;53.800;15.956;2023-03-05T10:17:52;99470.36;;;1.68;72.32
67987;BME280;54767;53.800;15.956;2023-03-05T10:20:47;99469.32;;;1.75;72.32
67987;BME280;54767;53.800;15.956;2023-03-05T10:23:22;99472.41;;;1.81;72.17
67987;BME280;54767;53.800;15.956;2023-03-05T10:26:07;99474.73;;;1.85;71.88
67987;BME280;54767;53.800;15.956;2023-03-05T10:31:45;99477.19;;;1.93;72.09
67987;BME280;54767;53.800;15.956;2023-03-05T10:34:57;99473.83;;;1.97;72.01
67987;BME280;54767;53.800;15.956;2023-03-05T10:40:15;99492.95;;;1.89;71.23
67987;BME280;54767;53.800;15.956;2023-03-05T10:43:00;99489.56;;;1.84;71.24
67987;BME280;54767;53.800;15.956;2023-03-05T10:45:35;99479.88;;;1.83;71.25
67987;BME280;54767;53.800;15.956;2023-03-05T10:48:10;99469.54;;;1.84;71.19
67987;BME280;54767;53.800;15.956;2023-03-05T10:50:51;99471.01;;;1.87;71.35
67987;BME280;54767;53.800;15.956;2023-03-05T10:53:28;99473.48;;;1.90;71.14
67987;BME280;54767;53.800;15.956;2023-03-05T10:56:04;99473.90;;;1.92;71.04
67987;BME280;54767;53.800;15.956;2023-03-05T10:58:32;99470.82;;;1.94;70.69
67987;BME280;54767;53.800;15.956;2023-03-05T11:12:09;99462.70;;;2.00;70.39
67987;BME280;54767;53.800;15.956;2023-03-05T11:23:13;99457.79;;;2.11;70.22
67987;BME280;54767;53.800;15.956;2023-03-05T11:28:35;99456.48;;;2.15;70.24
67987;BME280;54767;53.800;15.956;2023-03-05T11:38:54;99466.00;;;2.09;69.39
67987;BME280;54767;53.800;15.956;2023-03-05T11:41:27;99469.73;;;2.05;69.60
67987;BME280;54767;53.800;15.956;2023-03-05T11:44:00;99464.80;;;2.01;69.76
67987;BME280;54767;53.800;15.956;2023-03-05T11:46:37;99461.10;;;1.98;69.98
67987;BME280;54767;53.800;15.956;2023-03-05T11:49:22;99454.38;;;1.99;70.17
67987;BME280;54767;53.800;15.956;2023-03-05T11:54:39;99449.83;;;2.03;70.36
67987;BME280;54767;53.800;15.956;2023-03-05T11:57:11;99448.04;;;2.08;70.50
67987;BME280;54767;53.800;15.956;2023-03-05T11:59:42;99445.54;;;2.13;70.60
67987;BME280;54767;53.800;15.956;2023-03-05T12:02:18;99444.80;;;2.17;70.72
67987;BME280;54767;53.800;15.956;2023-03-05T12:04:48;99450.58;;;2.20;70.46
67987;BME280;54767;53.800;15.956;2023-03-05T12:07:29;99451.92;;;2.19;70.43
67987;BME280;54767;53.800;15.956;2023-03-05T12:10:01;99444.14;;;2.19;70.58
67987;BME280;54767;53.800;15.956;2023-03-05T12:12:38;99442.04;;;2.18;70.38
67987;BME280;54767;53.800;15.956;2023-03-05T12:29:43;99428.55;;;2.17;70.03
67987;BME280;54767;53.800;15.956;2023-03-05T12:45:32;99423.31;;;2.13;68.91
67987;BME280;54767;53.800;15.956;2023-03-05T12:53:19;99443.03;;;1.86;68.94
67987;BME280;54767;53.800;15.956;2023-03-05T12:56:18;99446.39;;;1.61;68.82
67987;BME280;54767;53.800;15.956;2023-03-05T12:58:54;99457.05;;;1.27;69.54
67987;BME280;54767;53.800;15.956;2023-03-05T13:04:11;99439.97;;;0.88;70.22
67987;BME280;54767;53.800;15.956;2023-03-05T13:09:32;99417.81;;;0.96;71.44
67987;BME280;54767;53.800;15.956;2023-03-05T13:12:14;99412.96;;;1.08;71.49
67987;BME280;54767;53.800;15.956;2023-03-05T13:15:06;99409.65;;;1.20;71.86
67987;BME280;54767;53.800;15.956;2023-03-05T13:35:28;99402.02;;;1.73;70.72
67987;BME280;54767;53.800;15.956;2023-03-05T13:42:30;99394.99;;;1.83;70.56
67987;BME280;54767;53.800;15.956;2023-03-05T13:56:04;99399.39;;;2.01;70.41
67987;BME280;54767;53.800;15.956;2023-03-05T14:03:53;99393.88;;;2.17;69.56
67987;BME280;54767;53.800;15.956;2023-03-05T14:06:25;99389.16;;;2.15;68.49
67987;BME280;54767;53.800;15.956;2023-03-05T14:09:05;99390.70;;;2.14;68.49
67987;BME280;54767;53.800;15.956;2023-03-05T14:11:34;99385.08;;;2.09;66.06
67987;BME280;54767;53.800;15.956;2023-03-05T14:14:12;99385.16;;;1.98;65.65
67987;BME280;54767;53.800;15.956;2023-03-05T14:16:41;99383.19;;;1.87;63.82
67987;BME280;54767;53.800;15.956;2023-03-05T14:19:35;99380.80;;;1.73;64.01
67987;BME280;54767;53.800;15.956;2023-03-05T14:22:05;99379.96;;;1.59;63.81
67987;BME280;54767;53.800;15.956;2023-03-05T14:24:33;99379.95;;;1.52;64.01
67987;BME280;54767;53.800;15.956;2023-03-05T14:27:06;99376.22;;;1.40;62.77
67987;BME280;54767;53.800;15.956;2023-03-05T14:29:44;99377.05;;;1.32;63.78
67987;BME280;54767;53.800;15.956;2023-03-05T14:32:26;99374.17;;;1.27;63.52
67987;BME280;54767;53.800;15.956;2023-03-05T14:34:58;99376.90;;;1.20;63.48
67987;BME280;54767;53.800;15.956;2023-03-05T14:37:38;99376.43;;;1.15;63.64
67987;BME280;54767;53.800;15.956;2023-03-05T14:45:17;99374.08;;;1.10;64.76
67987;BME280;54767;53.800;15.956;2023-03-05T14:47:46;99376.69;;;1.12;65.32
67987;BME280;54767;53.800;15.956;2023-03-05T14:50:16;99377.42;;;1.13;65.80
67987;BME280;54767;53.800;15.956;2023-03-05T14:52:47;99373.48;;;1.13;66.24
67987;BME280;54767;53.800;15.956;2023-03-05T14:55:19;99373.70;;;1.16;66.11
67987;BME280;54767;53.800;15.956;2023-03-05T14:57:49;99374.09;;;1.17;66.11
67987;BME280;54767;53.800;15.956;2023-03-05T15:00:22;99376.05;;;1.20;66.36
67987;BME280;54767;53.800;15.956;2023-03-05T15:02:51;99371.77;;;1.21;66.13
67987;BME280;54767;53.800;15.956;2023-03-05T15:05:19;99370.69;;;1.26;66.33
67987;BME280;54767;53.800;15.956;2023-03-05T15:07:48;99373.01;;;1.30;66.45
67987;BME280;54767;53.800;15.956;2023-03-05T15:10:21;99365.50;;;1.32;66.84
67987;BME280;54767;53.800;15.956;2023-03-05T15:12:50;99364.00;;;1.34;66.80
67987;BME280;54767;53.800;15.956;2023-03-05T15:15:24;99363.85;;;1.35;66.94
67987;BME280;54767;53.800;15.956;2023-03-05T15:17:57;99365.85;;;1.32;67.19
67987;BME280;54767;53.800;15.956;2023-03-05T15:20:27;99364.14;;;1.33;66.90
67987;BME280;54767;53.800;15.956;2023-03-05T15:22:57;99363.90;;;1.30;66.82
67987;BME280;54767;53.800;15.956;2023-03-05T15:25:27;99361.11;;;1.29;67.09
67987;BME280;54767;53.800;15.956;2023-03-05T15:27:57;99363.31;;;1.27;67.05
67987;BME280;54767;53.800;15.956;2023-03-05T15:30:46;99364.13;;;1.26;67.17
67987;BME280;54767;53.800;15.956;2023-03-05T15:33:23;99357.50;;;1.23;67.29
67987;BME280;54767;53.800;15.956;2023-03-05T15:36:06;99360.55;;;1.21;67.29
67987;BME280;54767;53.800;15.956;2023-03-05T15:38:35;99361.72;;;1.19;67.08